createdAt,value
2022-11-24T00:00:49.641Z,100715.50
2022-11-24T00:03:58.592Z,100728.88
2022-11-24T00:07:01.625Z,100720.03
2022-11-24T00:10:05.750Z,100724.50
2022-11-24T00:13:08.686Z,100719.25
2022-11-24T00:16:13.489Z,100722.84
2022-11-24T00:19:19.872Z,100724.63
2022-11-24T00:22:23.173Z,100723.78
2022-11-24T00:25:26.264Z,100724.72
2022-11-24T00:28:29.271Z,100716.75
2022-11-24T00:31:33.715Z,100717.66
2022-11-24T00:34:38.471Z,100711.41
2022-11-24T00:37:41.420Z,100715.00
2022-11-24T00:40:44.395Z,100722.97
2022-11-24T00:43:48.934Z,100730.97
2022-11-24T00:46:51.974Z,100729.25
2022-11-24T00:49:56.358Z,100725.72
2022-11-24T00:52:59.287Z,100731.06
2022-11-24T00:56:03.988Z,100732.06
2022-11-24T00:59:06.926Z,100730.25
2022-11-24T01:02:10.136Z,100742.69
2022-11-24T01:05:14.551Z,100734.72
2022-11-24T01:08:17.555Z,100732.06
2022-11-24T01:11:23.298Z,100727.59
2022-11-24T01:14:26.776Z,100723.19
2022-11-24T01:17:29.727Z,100731.19
2022-11-24T01:20:34.094Z,100727.69
2022-11-24T01:23:37.149Z,100730.41
2022-11-24T01:26:40.420Z,100730.41
2022-11-24T01:29:43.380Z,100724.22
2022-11-24T01:32:46.343Z,100737.50
2022-11-24T01:35:50.630Z,100727.81
2022-11-24T01:38:53.596Z,100726.88
2022-11-24T01:41:56.555Z,100722.50
2022-11-24T01:45:32.156Z,100730.47
2022-11-24T01:48:42.511Z,100725.16
2022-11-24T01:51:51.009Z,100719.84
2022-11-24T01:54:57.601Z,100724.28
2022-11-24T01:58:05.326Z,100728.75
2022-11-24T02:01:08.347Z,100734.06
2022-11-24T02:04:15.773Z,100736.72
2022-11-24T02:07:20.234Z,100740.25
2022-11-24T02:10:23.751Z,100736.72
2022-11-24T02:13:26.887Z,100749.19
2022-11-24T02:16:30.973Z,100750.03
2022-11-24T02:19:46.802Z,100749.19
2022-11-24T02:22:56.117Z,100743.00
2022-11-24T02:26:12.659Z,100743.88
2022-11-24T02:29:17.686Z,100749.19
2022-11-24T02:32:21.557Z,100760.66
2022-11-24T02:35:24.538Z,100765.97
2022-11-24T02:38:32.289Z,100775.78
2022-11-24T02:41:35.422Z,100767.81
2022-11-24T02:44:43.402Z,100773.97
2022-11-24T02:47:46.625Z,100765.19
2022-11-24T02:50:49.630Z,100761.63
2022-11-24T02:53:52.563Z,100760.75
2022-11-24T02:56:55.589Z,100763.41
2022-11-24T03:00:00.007Z,100758.94
2022-11-24T03:03:03.180Z,100753.63
2022-11-24T03:06:06.482Z,100769.59
2022-11-24T03:09:09.439Z,100782.03
2022-11-24T03:12:12.415Z,100790.88
2022-11-24T03:15:17.018Z,100791.75
2022-11-24T03:18:20.010Z,100790.88
2022-11-24T03:21:23.078Z,100797.06
2022-11-24T03:24:26.380Z,100780.22
2022-11-24T03:27:29.475Z,100776.63
2022-11-24T03:30:33.831Z,100776.56
2022-11-24T03:33:37.074Z,100781.81
2022-11-24T03:36:40.108Z,100774.63
2022-11-24T03:39:43.046Z,100784.19
2022-11-24T03:42:46.038Z,100788.50
2022-11-24T03:45:51.138Z,100791.94
2022-11-24T03:48:54.119Z,100789.16
2022-11-24T03:51:57.122Z,100783.75
2022-11-24T03:55:00.097Z,100791.66
2022-11-24T03:58:03.419Z,100786.25
2022-11-24T04:01:07.743Z,100781.81
2022-11-24T04:04:12.102Z,100778.22
2022-11-24T04:07:15.061Z,100784.47
2022-11-24T04:10:18.058Z,100790.56
2022-11-24T04:13:21.969Z,100791.53
2022-11-24T04:16:26.367Z,100793.31
2022-11-24T04:19:29.363Z,100781.88
2022-11-24T04:22:32.523Z,100789.88
2022-11-24T04:25:35.937Z,100789.88
2022-11-24T04:28:39.010Z,100807.72
2022-11-24T04:31:43.382Z,100814.81
2022-11-24T04:34:46.349Z,100820.22
2022-11-24T04:37:49.339Z,100824.75
2022-11-24T04:40:52.281Z,100829.22
2022-11-24T04:43:55.245Z,100822.22
2022-11-24T04:46:59.622Z,100839.13
2022-11-24T04:50:02.635Z,100831.16
2022-11-24T04:53:05.630Z,100828.63
2022-11-24T04:56:09.343Z,100843.72
2022-11-24T04:59:14.318Z,100840.22
2022-11-24T05:02:18.930Z,100842.00
2022-11-24T05:05:21.922Z,100850.00
2022-11-24T05:08:24.906Z,100849.13
2022-11-24T05:11:27.918Z,100855.31
2022-11-24T05:14:30.983Z,100866.81
2022-11-24T05:17:37.865Z,100870.31
2022-11-24T05:20:40.839Z,100869.47
2022-11-24T05:23:43.767Z,100861.50
2022-11-24T05:26:46.690Z,100863.22
2022-11-24T05:29:49.630Z,100863.22
2022-11-24T05:32:53.928Z,100870.28
2022-11-24T05:36:01.525Z,100865.88
2022-11-24T05:39:04.585Z,100874.72
2022-11-24T05:42:22.474Z,100879.09
2022-11-24T05:45:25.526Z,100875.53
2022-11-24T05:48:29.883Z,100877.22
2022-11-24T05:51:33.376Z,100878.09
2022-11-24T05:54:36.537Z,100875.44
2022-11-24T05:57:39.649Z,100879.84
2022-11-24T06:00:42.579Z,100884.22
2022-11-24T06:03:46.902Z,100894.84
2022-11-24T06:06:49.955Z,100890.41
2022-11-24T06:09:52.900Z,100906.38
2022-11-24T06:12:56.006Z,100912.56
2022-11-24T06:16:00.549Z,100915.16
2022-11-24T06:19:04.992Z,100924.94
2022-11-24T06:22:08.025Z,100926.75
2022-11-24T06:25:11.135Z,100918.75
2022-11-24T06:28:14.206Z,100931.13
2022-11-24T06:31:17.264Z,100937.41
2022-11-24T06:34:21.852Z,100934.72
2022-11-24T06:37:24.949Z,100933.00
2022-11-24T06:40:28.013Z,100938.38
2022-11-24T06:43:31.741Z,100940.19
2022-11-24T06:46:34.724Z,100935.78
2022-11-24T06:49:39.022Z,100948.25
2022-11-24T06:52:42.133Z,100953.56
2022-11-24T06:55:46.398Z,100958.88
2022-11-24T06:58:50.934Z,100959.72
2022-11-24T07:01:54.136Z,100960.59
2022-11-24T07:04:58.470Z,100957.94
2022-11-24T07:08:01.525Z,100957.94
2022-11-24T07:11:07.879Z,100965.00
2022-11-24T07:14:11.310Z,100965.91
2022-11-24T07:17:14.306Z,100981.88
2022-11-24T07:20:18.874Z,100980.16
2022-11-24T07:23:21.815Z,100977.56
2022-11-24T07:26:25.661Z,100985.53
2022-11-24T07:29:28.688Z,100980.28
2022-11-24T07:32:31.647Z,100985.59
2022-11-24T07:35:36.071Z,100986.56
2022-11-24T07:38:39.021Z,100990.13
2022-11-24T07:41:42.051Z,100992.78
2022-11-24T07:44:44.961Z,100991.94
2022-11-24T07:47:47.926Z,100985.75
2022-11-24T07:50:55.739Z,100991.09
2022-11-24T07:53:59.130Z,100989.34
2022-11-24T07:57:02.081Z,101003.56
2022-11-24T08:00:06.781Z,101000.09
2022-11-24T08:03:09.758Z,101000.31
2022-11-24T08:06:24.427Z,100998.66
2022-11-24T08:09:29.397Z,101005.84
2022-11-24T08:12:32.705Z,101006.69
2022-11-24T08:15:35.644Z,101001.16
2022-11-24T08:18:39.508Z,101000.09
2022-11-24T08:21:43.910Z,101007.78
2022-11-24T08:24:48.788Z,101003.91
2022-11-24T08:27:51.811Z,101007.03
2022-11-24T08:30:54.774Z,101008.41
2022-11-24T08:33:57.778Z,101017.78
2022-11-24T08:37:02.262Z,101005.97
2022-11-24T08:40:06.059Z,101011.06
2022-11-24T08:43:09.057Z,101005.53
2022-11-24T08:46:17.019Z,101016.16
2022-11-24T08:49:21.634Z,101009.78
2022-11-24T08:52:26.998Z,101009.78
2022-11-24T08:55:30.288Z,101023.09
2022-11-24T08:58:34.308Z,101025.78
2022-11-24T09:01:37.410Z,101022.31
2022-11-24T09:04:40.707Z,101018.84
2022-11-24T09:07:45.828Z,101021.59
2022-11-24T09:10:48.897Z,101030.53
2022-11-24T09:13:52.478Z,101032.44
2022-11-24T09:16:55.518Z,101030.78
2022-11-24T09:19:58.578Z,101035.38
2022-11-24T09:23:03.037Z,101037.22
2022-11-24T09:26:07.411Z,101045.28
2022-11-24T09:29:12.523Z,101054.28
2022-11-24T09:32:15.655Z,101052.59
2022-11-24T09:35:18.782Z,101053.59
2022-11-24T09:38:23.615Z,101054.53
2022-11-24T09:41:48.766Z,101058.91
2022-11-24T09:45:19.952Z,101053.66
2022-11-24T09:48:37.601Z,101055.47
2022-11-24T09:51:44.130Z,101059.06
2022-11-24T09:54:54.603Z,101058.19
2022-11-24T09:58:11.475Z,101047.56
2022-11-24T10:01:18.224Z,101044.97
2022-11-24T10:04:23.677Z,101045.88
2022-11-24T10:07:31.645Z,101054.81
2022-11-24T10:10:48.651Z,101062.81
2022-11-24T10:14:13.939Z,101056.69
2022-11-24T10:17:28.175Z,101052.28
2022-11-24T10:20:50.232Z,101062.06
2022-11-24T10:24:25.903Z,101074.38
2022-11-24T10:27:36.236Z,101079.69
2022-11-24T10:30:40.507Z,101077.81
2022-11-24T10:33:43.973Z,101075.16
2022-11-24T10:36:52.473Z,101078.63
2022-11-24T10:40:05.544Z,101098.13
2022-11-24T10:43:12.802Z,101086.53
2022-11-24T10:46:20.824Z,101089.19
2022-11-24T10:49:28.780Z,101086.53
2022-11-24T10:52:38.765Z,101098.06
2022-11-24T10:56:02.536Z,101084.75
2022-11-24T10:59:22.466Z,101077.72
2022-11-24T11:02:37.859Z,101077.56
2022-11-24T11:05:54.011Z,101071.34
2022-11-24T11:09:19.598Z,101071.31
2022-11-24T11:15:47.943Z,101068.69
2022-11-24T11:18:51.135Z,101079.34
2022-11-24T11:22:03.172Z,101078.50
2022-11-24T11:25:19.249Z,101073.19
2022-11-24T11:28:29.342Z,101072.31
2022-11-24T11:31:33.390Z,101066.09
2022-11-24T11:34:38.096Z,101080.38
2022-11-24T11:37:43.294Z,101080.38
2022-11-24T11:40:49.975Z,101083.94
2022-11-24T11:44:01.870Z,101083.94
2022-11-24T11:47:15.591Z,101077.75
2022-11-24T11:50:25.414Z,101074.25
2022-11-24T11:53:37.425Z,101076.91
2022-11-24T11:56:44.430Z,101093.78
2022-11-24T12:00:03.675Z,101096.47
2022-11-24T12:03:31.106Z,101098.31
2022-11-24T12:06:53.905Z,101097.53
2022-11-24T12:10:04.662Z,101097.53
2022-11-24T12:13:48.462Z,101086.94
2022-11-24T12:17:03.080Z,101080.84
2022-11-24T12:20:24.753Z,101085.28
2022-11-24T12:23:39.139Z,101093.25
2022-11-24T12:26:48.310Z,101096.81
2022-11-24T12:30:17.175Z,101095.84
2022-11-24T12:33:38.517Z,101093.19
2022-11-24T12:36:58.692Z,101088.75
2022-11-24T12:40:06.693Z,101092.28
2022-11-24T12:43:21.103Z,101089.63
2022-11-24T12:46:33.675Z,101100.19
2022-11-24T12:49:44.325Z,101097.53
2022-11-24T12:52:58.456Z,101102.78
2022-11-24T12:56:08.625Z,101097.41
2022-11-24T12:59:26.859Z,101106.19
2022-11-24T13:02:41.814Z,101108.84
2022-11-24T13:05:52.038Z,101107.00
2022-11-24T13:08:55.252Z,101102.47
2022-11-24T13:12:09.828Z,101109.56
2022-11-24T13:15:43.547Z,101114.03
2022-11-24T13:18:46.748Z,101120.22
2022-11-24T13:22:01.043Z,101121.94
2022-11-24T13:25:17.336Z,101130.88
2022-11-24T13:29:05.793Z,101125.56
2022-11-24T13:32:51.610Z,101137.97
2022-11-24T13:36:31.014Z,101144.25
2022-11-24T13:39:50.814Z,101146.91
2022-11-24T13:43:21.660Z,101153.09
2022-11-24T13:47:03.320Z,101144.25
2022-11-24T13:50:11.429Z,101145.16
2022-11-24T13:53:23.386Z,101138.94
2022-11-24T13:56:30.647Z,101141.63
2022-11-24T13:59:36.380Z,101140.78
2022-11-24T14:02:39.571Z,101154.09
2022-11-24T14:05:50.209Z,101153.22
2022-11-24T14:08:53.581Z,101159.47
2022-11-24T14:12:06.441Z,101162.13
2022-11-24T14:15:23.866Z,101161.28
2022-11-24T14:18:29.068Z,101169.28
2022-11-24T14:21:37.325Z,101167.47
2022-11-24T14:24:42.193Z,101170.13
2022-11-24T14:27:47.208Z,101174.59
2022-11-24T14:30:50.386Z,101181.63
2022-11-24T14:34:17.771Z,101176.31
2022-11-24T14:37:21.101Z,101184.31
2022-11-24T14:40:41.428Z,101190.50
2022-11-24T14:43:45.790Z,101199.41
2022-11-24T14:46:49.238Z,101197.59
2022-11-24T14:49:53.721Z,101197.69
2022-11-24T14:52:59.051Z,101205.66
2022-11-24T14:56:22.431Z,101207.38
2022-11-24T14:59:28.522Z,101204.72
2022-11-24T15:02:44.046Z,101226.88
2022-11-24T15:05:56.075Z,101232.22
2022-11-24T15:08:59.197Z,101234.88
2022-11-24T15:12:07.986Z,101242.88
2022-11-24T15:15:21.253Z,101242.88
2022-11-24T15:18:28.082Z,101240.19
2022-11-24T15:21:33.027Z,101249.13
2022-11-24T15:24:50.345Z,101249.13
2022-11-24T15:27:53.517Z,101253.59
2022-11-24T15:31:01.280Z,101248.25
2022-11-24T15:34:04.296Z,101263.34
2022-11-24T15:37:07.355Z,101256.31
2022-11-24T15:40:12.486Z,101269.56
2022-11-24T15:43:30.130Z,101268.69
2022-11-24T15:46:38.515Z,101274.00
2022-11-24T15:49:41.697Z,101277.53
2022-11-24T15:52:45.507Z,101283.75
2022-11-24T15:55:48.726Z,101282.88
2022-11-24T15:58:51.745Z,101275.75
2022-11-24T16:01:56.258Z,101273.09
2022-11-24T16:04:59.341Z,101274.00
2022-11-24T16:08:02.341Z,101267.75
2022-11-24T16:11:05.381Z,101275.75
2022-11-24T16:14:08.406Z,101273.09
2022-11-24T16:17:12.791Z,101270.44
2022-11-24T16:20:16.032Z,101272.16
2022-11-24T16:23:19.308Z,101276.59
2022-11-24T16:26:22.411Z,101278.34
2022-11-24T16:29:25.430Z,101268.56
2022-11-24T16:32:29.813Z,101273.91
2022-11-24T16:35:32.880Z,101273.03
2022-11-24T16:38:35.831Z,101278.34
2022-11-24T16:41:38.753Z,101270.34
2022-11-24T16:44:41.726Z,101266.81
2022-11-24T16:47:46.061Z,101277.47
2022-11-24T16:50:49.035Z,101282.78
2022-11-24T16:53:58.277Z,101280.13
2022-11-24T16:57:01.336Z,101277.53
2022-11-24T17:00:05.450Z,101286.41
2022-11-24T17:03:09.757Z,101289.97
2022-11-24T17:06:15.726Z,101290.84
2022-11-24T17:09:18.918Z,101295.28
2022-11-24T17:12:21.968Z,101299.75
2022-11-24T17:15:33.490Z,101298.91
2022-11-24T17:18:40.111Z,101304.25
2022-11-24T17:21:43.194Z,101306.94
2022-11-24T17:24:46.178Z,101299.88
2022-11-24T17:27:49.242Z,101309.66
2022-11-24T17:30:52.567Z,101305.25
2022-11-24T17:33:58.350Z,101304.34
2022-11-24T17:37:01.434Z,101316.69
2022-11-24T17:40:27.294Z,101311.38
2022-11-24T17:43:28.194Z,101315.84
2022-11-24T17:46:32.042Z,101322.03
2022-11-24T17:49:36.643Z,101316.69
2022-11-24T17:52:39.593Z,101330.00
2022-11-24T17:55:42.534Z,101327.34
2022-11-24T17:58:45.873Z,101330.94
2022-11-24T18:01:48.921Z,101330.06
2022-11-24T18:04:53.260Z,101331.81
2022-11-24T18:07:56.331Z,101335.41
2022-11-24T18:11:04.452Z,101334.53
2022-11-24T18:14:07.333Z,101338.06
2022-11-24T18:17:10.483Z,101341.59
2022-11-24T18:20:15.422Z,101343.31
2022-11-24T18:23:18.421Z,101341.59
2022-11-24T18:26:22.885Z,101343.31
2022-11-24T18:29:25.906Z,101346.84
2022-11-24T18:32:28.916Z,101351.31
2022-11-24T18:35:33.242Z,101346.91
2022-11-24T18:38:37.475Z,101355.78
2022-11-24T18:41:40.861Z,101352.25
2022-11-24T18:44:45.437Z,101352.25
2022-11-24T18:47:50.768Z,101354.91
2022-11-24T18:50:57.149Z,101351.38
2022-11-24T18:54:02.065Z,101353.16
2022-11-24T18:57:05.094Z,101348.72
2022-11-24T19:00:09.515Z,101351.38
2022-11-24T19:03:12.479Z,101353.13
2022-11-24T19:06:18.825Z,101349.59
2022-11-24T19:09:22.846Z,101354.84
2022-11-24T19:12:25.827Z,101352.25
2022-11-24T19:15:32.619Z,101357.56
2022-11-24T19:18:35.552Z,101363.81
2022-11-24T19:21:41.150Z,101365.63
2022-11-24T19:24:45.148Z,101373.59
2022-11-24T19:27:48.157Z,101375.41
2022-11-24T19:30:51.298Z,101376.28
2022-11-24T19:33:54.754Z,101381.59
2022-11-24T19:36:59.082Z,101383.38
2022-11-24T19:40:02.017Z,101390.41
2022-11-24T19:43:04.945Z,101387.75
2022-11-24T19:46:09.768Z,101394.84
2022-11-24T19:49:12.925Z,101390.41
2022-11-24T19:52:17.235Z,101400.22
2022-11-24T19:55:20.172Z,101402.88
2022-11-24T19:58:23.235Z,101404.66
2022-11-24T20:01:27.663Z,101408.25
2022-11-24T20:04:32.795Z,101398.47
2022-11-24T20:07:37.605Z,101401.13
2022-11-24T20:10:42.456Z,101400.25
2022-11-24T20:13:46.849Z,101401.19
2022-11-24T20:16:49.853Z,101400.25
2022-11-24T20:19:52.769Z,101401.13
2022-11-24T20:22:57.127Z,101396.69
2022-11-24T20:26:05.297Z,101402.88
2022-11-24T20:29:09.829Z,101406.47
2022-11-24T20:32:17.485Z,101400.25
2022-11-24T20:35:20.504Z,101408.25
2022-11-24T20:38:24.839Z,101405.59
2022-11-24T20:41:29.940Z,101421.56
2022-11-24T20:44:33.291Z,101414.50
2022-11-24T20:47:36.724Z,101422.50
2022-11-24T20:50:39.650Z,101425.16
2022-11-24T20:53:44.506Z,101420.72
2022-11-24T20:56:48.539Z,101427.81
2022-11-24T20:59:52.442Z,101424.22
2022-11-24T21:02:57.619Z,101429.53
2022-11-24T21:06:00.627Z,101425.97
2022-11-24T21:09:05.232Z,101433.06
2022-11-24T21:12:08.369Z,101438.34
2022-11-24T21:15:11.578Z,101433.00
2022-11-24T21:18:14.661Z,101426.84
2022-11-24T21:21:18.456Z,101433.94
2022-11-24T21:24:22.905Z,101433.94
2022-11-24T21:27:27.126Z,101438.31
2022-11-24T21:30:30.386Z,101444.47
2022-11-24T21:33:34.207Z,101439.16
2022-11-24T21:36:40.743Z,101438.22
2022-11-24T21:39:45.696Z,101442.66
2022-11-24T21:42:48.898Z,101437.31
2022-11-24T21:45:51.969Z,101447.03
2022-11-24T21:48:55.311Z,101450.56
2022-11-24T21:51:58.293Z,101455.00
2022-11-24T21:55:03.036Z,101453.28
2022-11-24T21:58:07.144Z,101462.19
2022-11-24T22:01:11.915Z,101467.50
2022-11-24T22:04:15.082Z,101463.94
2022-11-24T22:07:18.143Z,101472.84
2022-11-24T22:10:22.546Z,101479.91
2022-11-24T22:13:25.570Z,101478.16
2022-11-24T22:16:28.771Z,101482.59
2022-11-24T22:19:32.232Z,101474.59
2022-11-24T22:22:35.344Z,101479.03
2022-11-24T22:25:39.721Z,101479.03
2022-11-24T22:28:44.415Z,101484.28
2022-11-24T22:31:47.623Z,101477.25
2022-11-24T22:34:50.676Z,101487.84
2022-11-24T22:37:53.689Z,101485.25
2022-11-24T22:41:02.000Z,101487.03
2022-11-24T22:44:05.839Z,101491.53
2022-11-24T22:47:08.895Z,101489.78
2022-11-24T22:50:13.103Z,101493.38
2022-11-24T22:53:16.054Z,101492.50
2022-11-24T22:56:21.519Z,101497.84
2022-11-24T22:59:24.523Z,101492.50
2022-11-24T23:02:27.559Z,101500.50
2022-11-24T23:05:30.627Z,101501.38
2022-11-24T23:08:35.547Z,101500.50
2022-11-24T23:11:41.167Z,101495.16
2022-11-24T23:14:44.173Z,101492.50
2022-11-24T23:17:47.183Z,101495.16
2022-11-24T23:20:50.185Z,101488.09
2022-11-24T23:23:54.215Z,101491.63
2022-11-24T23:26:58.623Z,101489.84
2022-11-24T23:30:01.649Z,101492.50
2022-11-24T23:33:04.705Z,101488.06
2022-11-24T23:36:09.774Z,101486.25
2022-11-24T23:39:14.219Z,101491.56
2022-11-24T23:42:18.607Z,101488.91
2022-11-24T23:45:21.582Z,101498.66
2022-11-24T23:48:24.529Z,101494.22
2022-11-24T23:51:29.682Z,101488.91
2022-11-24T23:54:32.798Z,101494.22
2022-11-24T23:57:37.284Z,101492.50
